Terminal Aerodrome Forecast
Issued by NWS Charleston, SC

Home | Current Version | Previous Version | Text Only | Print | Product List | Glossary On
Versions: 1 2 3 4 5 6 7 8 9 10 11 12 13 14 15 16 17 18 19 20 21 22 23 24 25 26 27
000
FTUS42 KCHS 131700
TAFCHS
TAF
KCHS 131732Z 1318/1418 17008KT 6SM -RA SCT025 BKN040
     FM131900 18009KT P6SM SCT025 BKN080
     FM140200 21006KT P6SM SCT015
     FM141400 25008KT P6SM SCT040=

USA.gov is the U.S. government's official web portal to all federal, state and local government web resources and services.